createdAt,value
2017-08-01T00:00:32.387Z,0
2017-08-01T00:01:32.746Z,0
2017-08-01T00:02:32.449Z,0
2017-08-01T00:03:32.483Z,0
2017-08-01T00:04:32.822Z,0
2017-08-01T00:05:47.133Z,0
2017-08-01T00:06:47.481Z,0
2017-08-01T00:07:32.885Z,0
2017-08-01T00:08:32.932Z,0
2017-08-01T00:09:32.613Z,0
2017-08-01T00:10:32.669Z,0
2017-08-01T00:11:32.692Z,0
2017-08-01T00:12:33.333Z,0
2017-08-01T00:13:33.047Z,0
2017-08-01T00:14:47.679Z,0
2017-08-01T00:15:32.802Z,0
2017-08-01T00:16:33.141Z,0
2017-08-01T00:17:33.164Z,0
2017-08-01T00:18:33.176Z,0
2017-08-01T00:19:47.818Z,0
2017-08-01T00:20:47.524Z,0
2017-08-01T00:22:33.302Z,0
2017-08-01T00:23:33.313Z,0
2017-08-01T00:24:33.383Z,0
2017-08-01T00:25:47.970Z,0
2017-08-01T00:26:47.992Z,0
2017-08-01T00:27:33.405Z,0
2017-08-01T00:28:33.193Z,0
2017-08-01T00:29:33.470Z,0
2017-08-01T00:30:33.495Z,0
2017-08-01T00:31:33.506Z,0
2017-08-01T00:33:33.568Z,0
2017-08-01T00:34:33.617Z,0
2017-08-01T00:35:33.620Z,0
2017-08-01T00:36:33.662Z,0
2017-08-01T00:37:33.062Z,0
2017-08-01T00:38:33.713Z,0
2017-08-01T00:39:33.715Z,0
2017-08-01T00:40:33.779Z,0
2017-08-01T00:41:33.799Z,0
2017-08-01T00:42:48.417Z,0
2017-08-01T00:43:33.838Z,0
2017-08-01T00:44:33.538Z,0
2017-08-01T00:45:33.900Z,0
2017-08-01T00:46:33.919Z,0
2017-08-01T00:47:33.946Z,0
2017-08-01T00:49:33.993Z,0
2017-08-01T00:50:34.016Z,0
2017-08-01T00:51:34.038Z,0
2017-08-01T00:52:34.078Z,0
2017-08-01T00:53:33.785Z,0
2017-08-01T00:54:34.130Z,0
2017-08-01T00:55:34.162Z,0
2017-08-01T00:56:34.170Z,0
2017-08-01T00:57:34.214Z,0
2017-08-01T00:59:03.427Z,0
2017-08-01T00:59:34.254Z,0
2017-08-01T01:00:34.271Z,0
2017-08-01T01:01:48.890Z,0
2017-08-01T01:02:34.034Z,0
2017-08-01T01:04:49.244Z,0
2017-08-01T01:05:49.025Z,0
2017-08-01T01:06:34.123Z,0
2017-08-01T01:07:48.449Z,0
2017-08-01T01:08:34.158Z,0
2017-08-01T01:09:49.100Z,0
2017-08-01T01:10:34.547Z,0
2017-08-01T01:11:34.572Z,0
2017-08-01T01:12:34.292Z,0
2017-08-01T01:13:34.606Z,0
2017-08-01T01:14:49.251Z,0
2017-08-01T01:15:34.669Z,0
2017-08-01T01:16:34.692Z,0
2017-08-01T01:17:34.730Z,0
2017-08-01T01:18:34.742Z,0
2017-08-01T01:19:34.791Z,0
2017-08-01T01:20:49.383Z,0
2017-08-01T01:21:49.440Z,0
2017-08-01T01:22:34.829Z,0
2017-08-01T01:23:34.883Z,0
2017-08-01T01:24:49.506Z,0
2017-08-01T01:25:49.227Z,0
2017-08-01T01:26:34.945Z,0
2017-08-01T01:27:34.992Z,0
2017-08-01T01:28:34.999Z,0
2017-08-01T01:29:49.346Z,0
2017-08-01T01:30:35.060Z,0
2017-08-01T01:31:34.776Z,0
2017-08-01T01:32:34.806Z,0
2017-08-01T01:33:35.165Z,0
2017-08-01T01:34:35.177Z,0
2017-08-01T01:35:49.773Z,0
2017-08-01T01:36:35.233Z,0
2017-08-01T01:37:35.254Z,0
2017-08-01T01:38:35.289Z,0
2017-08-01T01:39:35.305Z,0
2017-08-01T01:40:35.326Z,0
2017-08-01T01:41:49.954Z,0
2017-08-01T01:43:35.420Z,0
2017-08-01T01:44:35.424Z,0
2017-08-01T01:45:35.460Z,0
2017-08-01T01:46:35.489Z,0
2017-08-01T01:47:35.509Z,0
2017-08-01T01:49:35.256Z,0
2017-08-01T01:50:50.178Z,0
2017-08-01T01:51:35.613Z,0
2017-08-01T01:52:50.246Z,0
2017-08-01T01:53:35.423Z,0
2017-08-01T01:54:35.679Z,0
2017-08-01T01:55:50.323Z,0
2017-08-01T01:56:35.743Z,0
2017-08-01T01:57:35.750Z,0
2017-08-01T01:58:35.799Z,0
2017-08-01T01:59:35.836Z,0
2017-08-01T02:00:35.860Z,0
2017-08-01T02:02:50.496Z,0
2017-08-01T02:03:35.601Z,0
2017-08-01T02:04:35.963Z,0
2017-08-01T02:05:35.960Z,0
2017-08-01T02:06:36.007Z,0
2017-08-01T02:07:36.010Z,0
2017-08-01T02:08:36.065Z,0
2017-08-01T02:09:35.753Z,0
2017-08-01T02:10:50.708Z,0
2017-08-01T02:11:36.131Z,0
2017-08-01T02:12:36.163Z,0
2017-08-01T02:13:36.184Z,0
2017-08-01T02:14:36.207Z,0
2017-08-01T02:15:36.265Z,0
2017-08-01T02:16:36.264Z,0
2017-08-01T02:17:50.871Z,0
2017-08-01T02:18:36.309Z,0
2017-08-01T02:19:36.036Z,0
2017-08-01T02:21:36.402Z,0
2017-08-01T02:22:36.423Z,0
2017-08-01T02:23:36.436Z,0
2017-08-01T02:24:36.462Z,0
2017-08-01T02:25:36.192Z,0
2017-08-01T02:26:51.117Z,0
2017-08-01T02:27:36.562Z,0
2017-08-01T02:28:36.572Z,0
2017-08-01T02:29:36.604Z,0
2017-08-01T02:30:36.622Z,0
2017-08-01T02:31:36.648Z,0
2017-08-01T02:32:36.674Z,0
2017-08-01T02:34:51.325Z,0
2017-08-01T02:36:36.782Z,0
2017-08-01T02:37:36.795Z,0
2017-08-01T02:38:36.823Z,0
2017-08-01T02:39:36.853Z,0
2017-08-01T02:40:36.565Z,0
2017-08-01T02:41:36.919Z,0
2017-08-01T02:42:36.936Z,0
2017-08-01T02:43:36.648Z,0
2017-08-01T02:44:36.965Z,0
2017-08-01T02:45:36.998Z,0
2017-08-01T02:46:37.048Z,0
2017-08-01T02:47:37.070Z,0
2017-08-01T02:48:36.767Z,0
2017-08-01T02:50:06.313Z,0
2017-08-01T02:50:37.132Z,0
2017-08-01T02:51:51.769Z,0
2017-08-01T02:52:37.186Z,0
2017-08-01T02:53:37.223Z,0
2017-08-01T02:54:37.257Z,0
2017-08-01T02:55:37.310Z,0
2017-08-01T02:56:37.303Z,0
2017-08-01T02:57:37.330Z,4
2017-08-01T02:58:37.362Z,4
2017-08-01T02:59:37.362Z,0
2017-08-01T03:00:37.092Z,0
2017-08-01T03:01:37.428Z,4
2017-08-01T03:02:37.448Z,4
2017-08-01T03:03:37.463Z,4
2017-08-01T03:04:51.821Z,4
2017-08-01T03:05:37.538Z,4
2017-08-01T03:06:37.236Z,0
2017-08-01T03:07:37.567Z,0
2017-08-01T03:08:37.584Z,0
2017-08-01T03:09:37.639Z,0
2017-08-01T03:10:37.324Z,4
2017-08-01T03:11:37.383Z,4
2017-08-01T03:12:37.716Z,4
2017-08-01T03:13:37.720Z,4
2017-08-01T03:14:37.458Z,4
2017-08-01T03:15:37.799Z,4
2017-08-01T03:16:37.492Z,8
2017-08-01T03:17:37.842Z,8
2017-08-01T03:18:37.855Z,8
2017-08-01T03:19:37.903Z,12
2017-08-01T03:20:37.900Z,16
2017-08-01T03:21:37.952Z,16
2017-08-01T03:22:52.552Z,20
2017-08-01T03:23:52.597Z,20
2017-08-01T03:24:38.022Z,24
2017-08-01T03:25:38.043Z,24
2017-08-01T03:26:38.060Z,28
2017-08-01T03:27:38.102Z,36
2017-08-01T03:28:38.125Z,48
2017-08-01T03:29:38.152Z,60
2017-08-01T03:30:52.786Z,72
2017-08-01T03:31:37.877Z,76
2017-08-01T03:32:38.216Z,88
2017-08-01T03:33:38.253Z,108
2017-08-01T03:34:52.890Z,136
2017-08-01T03:35:38.308Z,144
2017-08-01T03:36:52.929Z,156
2017-08-01T03:37:38.361Z,160
2017-08-01T03:38:38.350Z,176
2017-08-01T03:39:53.017Z,188
2017-08-01T03:40:53.032Z,188
2017-08-01T03:41:38.469Z,180
2017-08-01T03:42:38.478Z,184
2017-08-01T03:43:38.512Z,188
2017-08-01T03:44:53.186Z,200
2017-08-01T03:45:38.570Z,216
2017-08-01T03:47:38.598Z,200
2017-08-01T03:48:38.632Z,180
2017-08-01T03:49:38.641Z,180
2017-08-01T03:50:38.695Z,172
2017-08-01T03:51:53.301Z,176
2017-08-01T03:52:53.345Z,180
2017-08-01T03:54:38.800Z,228
2017-08-01T03:55:38.820Z,268
2017-08-01T03:56:38.535Z,344
2017-08-01T03:57:38.858Z,396
2017-08-01T03:58:38.901Z,468
2017-08-01T03:59:38.946Z,584
2017-08-01T04:00:38.653Z,732
2017-08-01T04:01:38.968Z,904
2017-08-01T04:03:39.040Z,1028
2017-08-01T04:04:38.752Z,1016
2017-08-01T04:05:39.087Z,1052
2017-08-01T04:06:38.798Z,1100
2017-08-01T04:07:38.848Z,1136
2017-08-01T04:09:08.359Z,1352
2017-08-01T04:09:38.915Z,1440
2017-08-01T04:10:39.197Z,1540
2017-08-01T04:11:39.227Z,1596
2017-08-01T04:12:39.256Z,1624
2017-08-01T04:13:39.297Z,1644
2017-08-01T04:14:39.304Z,1600
2017-08-01T04:15:53.947Z,1288
2017-08-01T04:16:39.042Z,1040
2017-08-01T04:17:39.070Z,772
2017-08-01T04:18:39.094Z,564
2017-08-01T04:19:54.047Z,412
2017-08-01T04:20:53.755Z,308
2017-08-01T04:21:53.472Z,236
2017-08-01T04:22:39.518Z,204
2017-08-01T04:23:39.551Z,188
2017-08-01T04:24:54.157Z,172
2017-08-01T04:25:39.288Z,176
2017-08-01T04:26:39.631Z,164
2017-08-01T04:27:39.663Z,164
2017-08-01T04:28:39.673Z,176
2017-08-01T04:29:39.716Z,204
2017-08-01T04:30:39.716Z,248
2017-08-01T04:31:54.357Z,324
2017-08-01T04:32:39.770Z,372
2017-08-01T04:33:39.809Z,404
2017-08-01T04:34:54.428Z,424
2017-08-01T04:35:39.871Z,432
2017-08-01T04:36:39.885Z,412
2017-08-01T04:37:39.911Z,356
2017-08-01T04:38:39.919Z,296
2017-08-01T04:39:54.559Z,244
2017-08-01T04:40:39.963Z,216
2017-08-01T04:41:54.601Z,196
2017-08-01T04:42:40.051Z,184
2017-08-01T04:43:40.069Z,188
2017-08-01T04:44:54.686Z,200
2017-08-01T04:45:40.080Z,212
2017-08-01T04:46:40.178Z,236
2017-08-01T04:47:40.156Z,260
2017-08-01T04:48:40.195Z,272
2017-08-01T04:50:40.271Z,256
2017-08-01T04:51:40.273Z,252
2017-08-01T04:52:40.284Z,252
2017-08-01T04:53:40.325Z,252
2017-08-01T04:54:40.343Z,264
2017-08-01T04:55:40.370Z,268
2017-08-01T04:56:40.399Z,252
2017-08-01T04:57:40.429Z,224
2017-08-01T04:58:40.504Z,188
2017-08-01T04:59:40.482Z,172
2017-08-01T05:00:40.497Z,168
2017-08-01T05:01:40.529Z,176
2017-08-01T05:02:40.566Z,172
2017-08-01T05:03:40.570Z,164
2017-08-01T05:04:40.593Z,152
2017-08-01T05:05:40.628Z,156
2017-08-01T05:06:40.665Z,168
2017-08-01T05:07:40.684Z,200
2017-08-01T05:08:40.700Z,248
2017-08-01T05:09:40.418Z,308
2017-08-01T05:10:40.741Z,384
2017-08-01T05:11:55.394Z,480
2017-08-01T05:12:40.797Z,548
2017-08-01T05:13:55.448Z,688
2017-08-01T05:14:40.872Z,776
2017-08-01T05:15:40.563Z,876
2017-08-01T05:16:55.507Z,960
2017-08-01T05:17:40.920Z,988
2017-08-01T05:18:55.559Z,1036
2017-08-01T05:19:40.984Z,1084
2017-08-01T05:20:41.025Z,1140
2017-08-01T05:21:40.718Z,1180
2017-08-01T05:22:41.057Z,1240
2017-08-01T05:23:41.071Z,1324
2017-08-01T05:24:41.163Z,1388
2017-08-01T05:25:41.134Z,1404
2017-08-01T05:26:41.171Z,1396
2017-08-01T05:27:55.777Z,1392
2017-08-01T05:28:41.235Z,1380
2017-08-01T05:29:41.240Z,1384
2017-08-01T05:30:41.283Z,1356
2017-08-01T05:31:41.298Z,1256
2017-08-01T05:32:41.329Z,1140
2017-08-01T05:33:41.029Z,1048
2017-08-01T05:34:41.376Z,972
2017-08-01T05:35:41.406Z,868
2017-08-01T05:36:41.436Z,756
2017-08-01T05:37:41.458Z,664
2017-08-01T05:38:41.464Z,600
2017-08-01T05:39:41.503Z,552
2017-08-01T05:40:40.908Z,528
2017-08-01T05:41:41.542Z,512
2017-08-01T05:42:41.579Z,512
2017-08-01T05:43:56.180Z,560
2017-08-01T05:44:41.328Z,616
2017-08-01T05:45:41.637Z,708
2017-08-01T05:46:41.691Z,828
2017-08-01T05:47:41.708Z,944
2017-08-01T05:48:41.422Z,1068
2017-08-01T05:49:41.766Z,1176
2017-08-01T05:50:41.773Z,1260
2017-08-01T05:51:41.817Z,1304
2017-08-01T05:52:41.817Z,1308
2017-08-01T05:53:56.456Z,1276
2017-08-01T05:54:41.893Z,1228
2017-08-01T05:55:41.897Z,1148
2017-08-01T05:56:41.952Z,1048
2017-08-01T05:57:56.563Z,924
2017-08-01T05:58:41.685Z,856
2017-08-01T05:59:56.610Z,728
2017-08-01T06:00:56.630Z,644
2017-08-01T06:01:41.763Z,596
2017-08-01T06:03:41.813Z,520
2017-08-01T06:04:41.835Z,492
2017-08-01T06:05:41.842Z,480
2017-08-01T06:06:41.897Z,464
2017-08-01T06:07:42.211Z,452
2017-08-01T06:08:42.307Z,440
2017-08-01T06:09:42.267Z,428
2017-08-01T06:10:42.295Z,432
2017-08-01T06:11:56.912Z,424
2017-08-01T06:12:42.351Z,424
2017-08-01T06:13:42.362Z,424
2017-08-01T06:14:56.992Z,436
2017-08-01T06:15:42.435Z,464
2017-08-01T06:16:42.460Z,480
2017-08-01T06:17:42.532Z,492
2017-08-01T06:19:42.547Z,524
2017-08-01T06:20:42.560Z,532
2017-08-01T06:21:42.575Z,540
2017-08-01T06:22:42.299Z,572
2017-08-01T06:23:57.220Z,656
2017-08-01T06:24:42.650Z,708
2017-08-01T06:25:42.382Z,796
2017-08-01T06:26:57.294Z,916
2017-08-01T06:27:42.437Z,1024
2017-08-01T06:28:57.359Z,1220
2017-08-01T06:29:42.794Z,1368
2017-08-01T06:30:42.792Z,1580
2017-08-01T06:31:42.837Z,1792
2017-08-01T06:32:42.860Z,1948
2017-08-01T06:33:42.576Z,2064
2017-08-01T06:34:42.904Z,2116
2017-08-01T06:35:42.919Z,2120
2017-08-01T06:36:42.956Z,2104
2017-08-01T06:37:42.975Z,2072
2017-08-01T06:38:42.701Z,2068
2017-08-01T06:39:43.024Z,2112
2017-08-01T06:40:42.763Z,2200
2017-08-01T06:41:43.082Z,2316
2017-08-01T06:42:43.104Z,2436
2017-08-01T06:43:43.125Z,2588
2017-08-01T06:44:43.148Z,2772
2017-08-01T06:45:57.796Z,3004
2017-08-01T06:46:57.800Z,3200
2017-08-01T06:47:42.923Z,3384
2017-08-01T06:48:43.266Z,3576
2017-08-01T06:49:57.889Z,3696
2017-08-01T06:50:43.011Z,3852
2017-08-01T06:51:42.720Z,4200
2017-08-01T06:52:43.337Z,4720
2017-08-01T06:53:43.391Z,5044
2017-08-01T06:54:43.386Z,5408
2017-08-01T06:55:43.138Z,5992
2017-08-01T06:56:43.138Z,6840
2017-08-01T06:57:43.236Z,7952
2017-08-01T06:58:43.496Z,9344
2017-08-01T06:59:43.552Z,11376
2017-08-01T07:00:42.938Z,12560
2017-08-01T07:01:43.597Z,15192
2017-08-01T07:02:58.268Z,20576
2017-08-01T07:03:43.627Z,27200
2017-08-01T07:04:43.363Z,34624
2017-08-01T07:05:43.061Z,41984
2017-08-01T07:06:43.416Z,45504
2017-08-01T07:07:43.433Z,40352
2017-08-01T07:08:43.972Z,29440
2017-08-01T07:09:43.497Z,36064
2017-08-01T07:10:58.117Z,45344
2017-08-01T07:11:43.855Z,32096
2017-08-01T07:12:43.576Z,48832
2017-08-01T07:14:43.933Z,54592
2017-08-01T07:15:43.646Z,50048
2017-08-01T07:16:43.986Z,46912
2017-08-01T07:17:44.025Z,46784
2017-08-01T07:19:44.084Z,58272
2017-08-01T07:20:58.414Z,48736
2017-08-01T07:21:43.827Z,56384
2017-08-01T07:22:43.862Z,62176
2017-08-01T07:23:44.192Z,63968
2017-08-01T07:25:44.233Z,44512
2017-08-01T07:26:44.283Z,46176
2017-08-01T07:27:44.310Z,33792
2017-08-01T07:28:44.355Z,35168
2017-08-01T07:29:44.358Z,43808
2017-08-01T07:30:44.102Z,41856
2017-08-01T07:32:59.061Z,56160
2017-08-01T07:33:44.510Z,56928
2017-08-01T07:34:59.115Z,66272
2017-08-01T07:35:44.255Z,63712
2017-08-01T07:36:44.575Z,61344
2017-08-01T07:37:44.640Z,65504
2017-08-01T07:38:44.660Z,65056
2017-08-01T07:39:44.374Z,62368
2017-08-01T07:41:44.763Z,53696
2017-08-01T07:42:44.799Z,53408
2017-08-01T07:43:44.866Z,53824
2017-08-01T07:44:59.462Z,55712
2017-08-01T07:45:44.893Z,56128
2017-08-01T07:46:44.598Z,63808
2017-08-01T07:47:44.957Z,57824
2017-08-01T07:49:59.606Z,52672
2017-08-01T07:50:45.055Z,56992
2017-08-01T07:51:45.082Z,38144
2017-08-01T07:53:45.152Z,20736
2017-08-01T07:54:45.206Z,18400
2017-08-01T07:55:45.230Z,15820
2017-08-01T07:56:44.962Z,14444
2017-08-01T07:57:45.285Z,16264
2017-08-01T07:58:45.337Z,57568
2017-08-01T07:59:45.367Z,21920
2017-08-01T08:00:45.388Z,63040
2017-08-01T08:01:45.422Z,35488
2017-08-01T08:02:45.433Z,21152
2017-08-01T08:03:45.494Z,20064
2017-08-01T08:04:45.532Z,13708
2017-08-01T08:05:45.564Z,12976
2017-08-01T08:07:45.330Z,15172
2017-08-01T08:09:00.249Z,14288
2017-08-01T08:10:00.297Z,12428
2017-08-01T08:10:45.404Z,10984
2017-08-01T08:11:45.447Z,10064
2017-08-01T08:12:45.477Z,9600
2017-08-01T08:15:45.894Z,10364
2017-08-01T08:16:45.609Z,11676
2017-08-01T08:17:45.309Z,14772
2017-08-01T08:19:45.995Z,14768
2017-08-01T08:22:00.675Z,20672
2017-08-01T08:22:45.788Z,33056
2017-08-01T08:24:00.737Z,25056
2017-08-01T08:24:46.157Z,28672
2017-08-01T08:25:46.219Z,25056
2017-08-01T08:26:45.909Z,25312
2017-08-01T08:28:46.288Z,25376
2017-08-01T08:29:46.321Z,18240
2017-08-01T08:30:46.059Z,24832
2017-08-01T08:31:46.076Z,25952
2017-08-01T08:32:46.420Z,25184
2017-08-01T08:33:46.121Z,25184
2017-08-01T08:34:46.488Z,19808
2017-08-01T08:35:46.192Z,18592
2017-08-01T08:36:46.547Z,19968
2017-08-01T08:38:00.866Z,22048
2017-08-01T08:38:46.612Z,24480
2017-08-01T08:39:46.332Z,20352
2017-08-01T08:41:01.291Z,23296
2017-08-01T08:41:46.707Z,23040
2017-08-01T08:42:46.761Z,22848
2017-08-01T08:43:46.792Z,22048
2017-08-01T08:44:46.808Z,22176
2017-08-01T08:45:46.849Z,22400
2017-08-01T08:47:01.482Z,20704
2017-08-01T08:47:46.627Z,23552
2017-08-01T08:48:46.959Z,23744
2017-08-01T08:49:46.988Z,18400
2017-08-01T08:51:47.065Z,21088
2017-08-01T08:52:47.078Z,18048
2017-08-01T08:54:01.740Z,19328
2017-08-01T08:54:47.220Z,19552
2017-08-01T08:55:46.886Z,20160
2017-08-01T08:56:46.926Z,16860
2017-08-01T08:58:01.857Z,18176
2017-08-01T08:58:47.300Z,16084
2017-08-01T09:00:01.911Z,18912
2017-08-01T09:00:47.389Z,18016
2017-08-01T09:02:02.007Z,19040
2017-08-01T09:02:47.430Z,18432
2017-08-01T09:03:46.866Z,19424
2017-08-01T09:04:47.193Z,20736
2017-08-01T09:05:47.530Z,21344
2017-08-01T09:07:02.170Z,21056
2017-08-01T09:07:47.584Z,20224
2017-08-01T09:08:47.633Z,21344
2017-08-01T09:10:02.266Z,21120
2017-08-01T09:10:47.710Z,21280
2017-08-01T09:11:47.741Z,21088
2017-08-01T09:13:02.352Z,20864
2017-08-01T09:13:47.803Z,20768
2017-08-01T09:14:47.834Z,20128
2017-08-01T09:15:47.575Z,21088
2017-08-01T09:16:47.897Z,18912
2017-08-01T09:17:47.960Z,20448
2017-08-01T09:18:47.993Z,20640
2017-08-01T09:19:48.019Z,20000
2017-08-01T09:21:02.338Z,19456
2017-08-01T09:21:48.087Z,19392
2017-08-01T09:22:48.108Z,12768
2017-08-01T09:23:48.153Z,17600
2017-08-01T09:25:02.473Z,15792
2017-08-01T09:26:02.521Z,17792
2017-08-01T09:26:47.630Z,16908
2017-08-01T09:27:48.294Z,13612
2017-08-01T09:30:02.958Z,15612
2017-08-01T09:30:48.393Z,17664
2017-08-01T09:31:48.421Z,18304
2017-08-01T09:32:48.463Z,19040
2017-08-01T09:33:48.187Z,17920
2017-08-01T09:34:48.525Z,19168
2017-08-01T09:35:48.253Z,19488
2017-08-01T09:36:48.299Z,19424
2017-08-01T09:37:48.329Z,18880
2017-08-01T09:38:48.688Z,18400
2017-08-01T09:39:48.690Z,18176
2017-08-01T09:40:48.744Z,18112
2017-08-01T09:41:48.443Z,17600
2017-08-01T09:42:48.824Z,17472
2017-08-01T09:43:48.848Z,17180
2017-08-01T09:44:48.887Z,17200
2017-08-01T09:45:48.924Z,17536
2017-08-01T09:46:48.952Z,17200
2017-08-01T09:47:48.989Z,16936
2017-08-01T09:48:49.023Z,16764
2017-08-01T09:49:49.058Z,16500
2017-08-01T09:51:03.696Z,16368
2017-08-01T09:51:49.135Z,16264
2017-08-01T09:52:49.137Z,16144
2017-08-01T09:53:49.200Z,16028
2017-08-01T09:54:49.211Z,15244
2017-08-01T09:56:03.539Z,11440
2017-08-01T09:57:03.593Z,15352
2017-08-01T09:58:03.933Z,14748
2017-08-01T09:58:49.053Z,13916
2017-08-01T09:59:49.089Z,15360
2017-08-01T10:00:49.102Z,15296
2017-08-01T10:01:49.472Z,15272
2017-08-01T10:02:49.204Z,15156
2017-08-01T10:03:49.575Z,14884
2017-08-01T10:04:49.256Z,14672
2017-08-01T10:06:04.196Z,14368
2017-08-01T10:06:49.645Z,14172
2017-08-01T10:08:49.405Z,13768
2017-08-01T10:09:49.741Z,13848
2017-08-01T10:11:04.376Z,13692
2017-08-01T10:11:49.507Z,13680
2017-08-01T10:13:04.440Z,13736
2017-08-01T10:14:04.474Z,13688
2017-08-01T10:14:49.606Z,13536
2017-08-01T10:15:49.953Z,13480
2017-08-01T10:17:49.996Z,13384
2017-08-01T10:18:50.048Z,13320
2017-08-01T10:19:49.768Z,13156
2017-08-01T10:20:49.814Z,13104
2017-08-01T10:21:50.149Z,13016
2017-08-01T10:23:04.789Z,12976
2017-08-01T10:23:50.215Z,12920
2017-08-01T10:25:04.871Z,12792
2017-08-01T10:25:50.306Z,12796
2017-08-01T10:26:50.330Z,12780
2017-08-01T10:27:50.337Z,12732
2017-08-01T10:29:05.008Z,12648
2017-08-01T10:29:50.114Z,12592
2017-08-01T10:31:05.058Z,12524
2017-08-01T10:31:50.508Z,12472
2017-08-01T10:32:50.538Z,12436
2017-08-01T10:33:50.273Z,12332
2017-08-01T10:34:50.607Z,12292
2017-08-01T10:35:50.010Z,12192
2017-08-01T10:36:50.669Z,12156
2017-08-01T10:38:05.310Z,12052
2017-08-01T10:38:50.726Z,11996
2017-08-01T10:39:50.772Z,12012
2017-08-01T10:40:50.812Z,11928
2017-08-01T10:41:50.531Z,11892
2017-08-01T10:42:50.267Z,11844
2017-08-01T10:43:50.911Z,11752
2017-08-01T10:45:05.541Z,11716
2017-08-01T10:45:50.342Z,11672
2017-08-01T10:46:51.004Z,11676
2017-08-01T10:47:50.427Z,11572
2017-08-01T10:48:51.080Z,10836
2017-08-01T10:49:50.952Z,11008
2017-08-01T10:50:51.133Z,11376
2017-08-01T10:51:50.886Z,11412
2017-08-01T10:52:51.203Z,11332
2017-08-01T10:53:51.234Z,11216
2017-08-01T10:55:05.886Z,11204
2017-08-01T10:55:51.300Z,11160
2017-08-01T10:56:51.362Z,11096
2017-08-01T10:58:51.411Z,10976
2017-08-01T11:01:51.505Z,10836
2017-08-01T11:02:51.533Z,10768
2017-08-01T11:04:51.617Z,10708
2017-08-01T11:05:51.641Z,10636
2017-08-01T11:06:51.678Z,10596
2017-08-01T11:08:06.295Z,10504
2017-08-01T11:08:51.433Z,10488
2017-08-01T11:09:51.457Z,10428
2017-08-01T11:10:51.809Z,10416
2017-08-01T11:11:51.823Z,10316
2017-08-01T11:13:06.472Z,10168
2017-08-01T11:13:51.887Z,9960
2017-08-01T11:14:51.932Z,9812
2017-08-01T11:16:52.010Z,9508
2017-08-01T11:17:51.708Z,9340
2017-08-01T11:18:52.047Z,9192
2017-08-01T11:19:51.771Z,9056
2017-08-01T11:20:51.815Z,8944
2017-08-01T11:21:52.199Z,8844
2017-08-01T11:22:51.891Z,8680
2017-08-01T11:23:52.229Z,8564
2017-08-01T11:25:06.858Z,8472
2017-08-01T11:26:06.577Z,8332
2017-08-01T11:26:51.719Z,8228
2017-08-01T11:27:52.344Z,8096
2017-08-01T11:28:52.082Z,7980
2017-08-01T11:30:52.443Z,7776
2017-08-01T11:33:52.551Z,7484
2017-08-01T11:35:52.298Z,7292
2017-08-01T11:36:52.659Z,7264
2017-08-01T11:38:07.257Z,7192
2017-08-01T11:38:52.402Z,7180
2017-08-01T11:40:52.449Z,7096
2017-08-01T11:41:52.179Z,7040
2017-08-01T11:42:52.514Z,6968
2017-08-01T11:43:52.849Z,6908
2017-08-01T11:44:52.880Z,6836
2017-08-01T11:45:52.929Z,6760
2017-08-01T11:46:52.968Z,6696
2017-08-01T11:48:07.589Z,6644
2017-08-01T11:49:07.637Z,6612
2017-08-01T11:49:52.742Z,6588
2017-08-01T11:50:53.077Z,6592
2017-08-01T11:51:52.824Z,6620
2017-08-01T11:53:52.870Z,6664
2017-08-01T11:54:52.892Z,5380
2017-08-01T11:56:07.846Z,6868
2017-08-01T11:56:52.971Z,6980
2017-08-01T11:58:07.913Z,7072
2017-08-01T11:58:53.039Z,7144
2017-08-01T11:59:53.108Z,7220
2017-08-01T12:00:53.402Z,7204
2017-08-01T12:01:53.434Z,7140
2017-08-01T12:02:53.490Z,7020
2017-08-01T12:04:23.904Z,6804
2017-08-01T12:04:53.211Z,6740
2017-08-01T12:05:53.567Z,6616
2017-08-01T12:06:53.278Z,6528
2017-08-01T12:07:53.630Z,6460
2017-08-01T12:08:53.345Z,6436
2017-08-01T12:09:53.693Z,6404
2017-08-01T12:10:53.721Z,6372
2017-08-01T12:11:53.750Z,6348
2017-08-01T12:12:53.461Z,6260
2017-08-01T12:13:53.491Z,6296
2017-08-01T12:14:53.854Z,5996
2017-08-01T12:15:53.557Z,6020
2017-08-01T12:16:53.910Z,6012
2017-08-01T12:17:53.639Z,6140
2017-08-01T12:18:53.657Z,6140
2017-08-01T12:20:23.210Z,6140
2017-08-01T12:21:08.643Z,6140
2017-08-01T12:21:53.755Z,6128
2017-08-01T12:22:54.109Z,6116
2017-08-01T12:23:54.114Z,6096
2017-08-01T12:24:54.167Z,6080
2017-08-01T12:25:54.191Z,6040
2017-08-01T12:26:53.941Z,6024
2017-08-01T12:27:53.952Z,6008
2017-08-01T12:28:54.283Z,6012
2017-08-01T12:29:54.315Z,6024
2017-08-01T12:30:54.340Z,6008
2017-08-01T12:31:54.382Z,6000
2017-08-01T12:32:54.420Z,5992
2017-08-01T12:33:54.465Z,5988
2017-08-01T12:35:54.511Z,5956
2017-08-01T12:36:54.543Z,5944
2017-08-01T12:38:54.604Z,5956
2017-08-01T12:39:54.653Z,5964
2017-08-01T12:41:09.282Z,5968
2017-08-01T12:41:54.379Z,5976
2017-08-01T12:43:54.454Z,5984
2017-08-01T12:44:54.496Z,6004
2017-08-01T12:45:54.522Z,6004
2017-08-01T12:46:54.560Z,6012
2017-08-01T12:47:54.873Z,6032
2017-08-01T12:49:54.949Z,6128
2017-08-01T12:50:54.687Z,6184
2017-08-01T12:51:55.023Z,6292
2017-08-01T12:52:54.731Z,6404
2017-08-01T12:53:54.771Z,6404
2017-08-01T12:54:55.099Z,6416
2017-08-01T12:55:54.840Z,6616
2017-08-01T12:56:54.858Z,4432
2017-08-01T12:58:54.922Z,4704
2017-08-01T12:59:54.953Z,4912
2017-08-01T13:00:55.310Z,5048
2017-08-01T13:01:55.341Z,4996
2017-08-01T13:02:55.351Z,4980
2017-08-01T13:03:55.390Z,4964
2017-08-01T13:04:55.401Z,5488
2017-08-01T13:05:55.458Z,5192
2017-08-01T13:07:10.097Z,5176
2017-08-01T13:08:10.123Z,5344
2017-08-01T13:08:55.264Z,7220
2017-08-01T13:09:55.275Z,7160
2017-08-01T13:10:55.300Z,7764
2017-08-01T13:11:55.340Z,6968
2017-08-01T13:12:55.671Z,6868
2017-08-01T13:13:55.108Z,7740
2017-08-01T13:14:55.729Z,6588
2017-08-01T13:15:55.468Z,6548
2017-08-01T13:16:55.792Z,6716
2017-08-01T13:17:55.847Z,6616
2017-08-01T13:18:55.846Z,6512
2017-08-01T13:19:55.909Z,6624
2017-08-01T13:20:55.597Z,7456
2017-08-01T13:21:55.967Z,7868
2017-08-01T13:23:10.600Z,8216
2017-08-01T13:24:10.627Z,7728
2017-08-01T13:24:56.068Z,7332
2017-08-01T13:26:10.373Z,7940
2017-08-01T13:26:56.118Z,8300
2017-08-01T13:28:10.464Z,9160
2017-08-01T13:28:55.875Z,9428
2017-08-01T13:29:56.219Z,9088
2017-08-01T13:31:10.842Z,8864
2017-08-01T13:31:56.296Z,8688
2017-08-01T13:32:56.319Z,8004
2017-08-01T13:33:56.364Z,7100
2017-08-01T13:34:56.381Z,6512
2017-08-01T13:35:56.073Z,6048
2017-08-01T13:36:56.437Z,5824
2017-08-01T13:37:55.848Z,5620
2017-08-01T13:39:11.102Z,5404
2017-08-01T13:39:56.544Z,5308
2017-08-01T13:40:56.237Z,5368
2017-08-01T13:41:56.594Z,5412
2017-08-01T13:42:56.636Z,5468
2017-08-01T13:44:56.697Z,5616
2017-08-01T13:45:56.706Z,5520
2017-08-01T13:46:56.754Z,5448
2017-08-01T13:48:11.410Z,5268
2017-08-01T13:48:56.527Z,5216
2017-08-01T13:49:56.853Z,5368
2017-08-01T13:50:56.579Z,7352
2017-08-01T13:51:56.582Z,6060
2017-08-01T13:52:56.948Z,6264
2017-08-01T13:53:56.984Z,6400
2017-08-01T13:55:11.613Z,6496
2017-08-01T13:55:57.045Z,6640
2017-08-01T13:56:56.740Z,6772
2017-08-01T13:57:56.797Z,6872
2017-08-01T13:58:57.132Z,6960
2017-08-01T13:59:56.856Z,7068
2017-08-01T14:00:56.868Z,7076
2017-08-01T14:01:57.232Z,7132
2017-08-01T14:03:11.854Z,7332
2017-08-01T14:03:57.301Z,7476
2017-08-01T14:05:57.053Z,7584
2017-08-01T14:06:57.370Z,7600
2017-08-01T14:07:57.422Z,7732
2017-08-01T14:08:57.450Z,7784
2017-08-01T14:10:12.084Z,8016
2017-08-01T14:11:57.557Z,7908
2017-08-01T14:12:57.278Z,7860
2017-08-01T14:13:57.602Z,7900
2017-08-01T14:14:57.646Z,7764
2017-08-01T14:15:57.648Z,7872
2017-08-01T14:16:57.717Z,8004
2017-08-01T14:17:57.421Z,8352
2017-08-01T14:18:57.795Z,10312
2017-08-01T14:20:57.834Z,10496
2017-08-01T14:22:11.845Z,9520
2017-08-01T14:23:12.501Z,9912
2017-08-01T14:23:57.930Z,8548
2017-08-01T14:25:12.238Z,9980
2017-08-01T14:25:57.996Z,7820
2017-08-01T14:26:58.029Z,8624
2017-08-01T14:27:58.066Z,8732